createdAt,value
2019-02-05T18:35:20.307Z,2.83
2019-02-05T18:36:21.833Z,2.86
2019-02-05T18:37:21.857Z,2.85
2019-02-05T18:38:21.787Z,2.82
2019-02-05T18:39:21.778Z,2.87
2019-02-05T18:40:21.819Z,2.86
2019-02-05T18:41:21.826Z,2.85
2019-02-05T18:42:21.807Z,2.83
2019-02-05T18:43:20.168Z,2.82
2019-02-05T18:44:21.785Z,2.80
2019-02-05T18:45:21.795Z,2.83
2019-02-05T18:46:22.879Z,2.79
2019-02-05T18:47:21.789Z,2.83
2019-02-05T18:48:21.783Z,2.82
2019-02-05T18:49:21.829Z,2.75
2019-02-05T18:50:21.810Z,2.75
2019-02-05T18:51:21.853Z,2.83
2019-02-05T18:52:21.780Z,2.82
2019-02-05T18:53:21.781Z,2.85
2019-02-05T18:54:21.784Z,2.83
2019-02-05T18:55:21.786Z,2.89
2019-02-05T18:56:21.809Z,2.80
2019-02-05T18:57:21.778Z,2.83
2019-02-05T18:58:21.779Z,2.82
2019-02-05T18:59:21.781Z,2.77
2019-02-05T19:00:21.790Z,2.82
2019-02-05T19:01:23.033Z,2.82
2019-02-05T19:02:21.796Z,2.83
2019-02-05T19:03:21.785Z,2.79
2019-02-05T19:04:21.835Z,2.87
2019-02-05T19:05:21.787Z,2.87
2019-02-05T19:06:21.791Z,2.80
2019-02-05T19:07:21.784Z,2.82
2019-02-05T19:08:21.811Z,2.80
2019-02-05T19:09:21.780Z,2.85
2019-02-05T19:10:21.784Z,2.82
2019-02-05T19:11:21.805Z,2.83
2019-02-05T19:12:21.782Z,2.82
2019-02-05T19:13:21.785Z,2.79
2019-02-05T19:14:23.335Z,2.82
2019-02-05T19:15:21.781Z,2.86
2019-02-05T19:16:21.817Z,2.87
2019-02-05T19:17:21.779Z,2.79
2019-02-05T19:18:21.797Z,2.82
2019-02-05T19:19:21.778Z,2.77
2019-02-05T19:20:21.336Z,2.79
2019-02-05T19:21:21.294Z,2.83
2019-02-05T19:22:21.309Z,2.80
2019-02-05T19:23:21.295Z,2.80
2019-02-05T19:24:21.280Z,2.83
2019-02-05T19:25:27.385Z,2.80
2019-02-05T19:26:21.421Z,2.83
2019-02-05T19:27:21.310Z,2.82
2019-02-05T19:28:20.761Z,2.82
2019-02-05T19:29:21.316Z,2.83
2019-02-05T19:30:21.327Z,2.82
2019-02-05T19:31:21.336Z,2.82
2019-02-05T19:32:21.318Z,2.86
2019-02-05T19:33:27.258Z,2.79
2019-02-05T19:34:22.310Z,2.86
2019-02-05T19:35:21.328Z,2.85
2019-02-05T19:36:21.332Z,2.85
2019-02-05T19:37:21.320Z,2.86
2019-02-05T19:38:21.321Z,2.89
2019-02-05T19:39:21.314Z,2.83
2019-02-05T19:40:21.391Z,2.85
2019-02-05T19:41:21.337Z,2.83
2019-02-05T19:42:21.351Z,2.86
2019-02-05T19:43:23.388Z,2.85
2019-02-05T19:44:21.316Z,2.89
2019-02-05T19:45:21.325Z,2.89
2019-02-05T19:46:21.384Z,2.92
2019-02-05T19:47:21.418Z,2.92
2019-02-05T19:48:21.309Z,2.89
2019-02-05T19:49:22.129Z,2.89
2019-02-05T19:50:21.332Z,2.86
2019-02-05T19:51:21.318Z,2.89
2019-02-05T19:52:21.304Z,2.95
2019-02-05T19:53:21.359Z,2.95
2019-02-05T19:54:21.320Z,2.90
2019-02-05T19:55:21.319Z,2.93
2019-02-05T19:56:21.343Z,2.97
2019-02-05T19:57:21.333Z,2.87
2019-02-05T19:58:21.318Z,2.93
2019-02-05T19:59:21.334Z,2.98
2019-02-05T20:00:21.338Z,3.00
2019-02-05T20:01:21.397Z,2.95
2019-02-05T20:04:02.545Z,2.90
2019-02-05T20:05:04.318Z,2.93
2019-02-05T20:06:04.390Z,2.97
2019-02-05T20:07:04.356Z,2.95
2019-02-05T20:08:04.363Z,2.95
2019-02-05T20:09:02.471Z,2.97
2019-02-05T20:10:04.321Z,2.90
2019-02-05T20:11:04.329Z,3.00
2019-02-05T20:12:04.556Z,2.92
2019-02-05T20:13:04.334Z,2.98
2019-02-05T20:14:04.333Z,2.89
2019-02-05T20:15:04.368Z,2.87
2019-02-05T20:16:04.344Z,2.98
2019-02-05T20:17:04.342Z,2.92
2019-02-05T20:18:04.355Z,2.95
2019-02-05T20:19:04.341Z,2.95
2019-02-05T20:20:04.342Z,2.92
2019-02-05T20:21:04.339Z,2.87
2019-02-05T20:22:04.340Z,2.92
2019-02-05T20:23:03.329Z,2.90
2019-02-05T20:24:03.821Z,3.05
2019-02-05T20:25:03.853Z,3.01
2019-02-05T20:26:05.760Z,2.90
2019-02-05T20:27:05.805Z,3.01
2019-02-05T20:28:03.828Z,2.98
2019-02-05T20:29:02.923Z,2.92
2019-02-05T20:30:03.841Z,3.03
2019-02-05T20:31:03.829Z,2.93
2019-02-05T20:32:03.825Z,3.04
2019-02-05T20:33:03.818Z,3.03
2019-02-05T20:34:03.836Z,2.98
2019-02-05T20:35:03.833Z,3.00
2019-02-05T20:36:03.824Z,2.93
2019-02-05T20:37:04.879Z,2.95
2019-02-05T20:38:03.827Z,3.00
2019-02-05T20:39:03.825Z,3.04
2019-02-05T20:40:03.834Z,3.01
2019-02-05T20:41:02.157Z,2.95
2019-02-05T20:42:03.829Z,2.97
2019-02-05T20:43:03.891Z,3.00
2019-02-05T20:44:03.824Z,3.11
2019-02-05T20:45:03.845Z,2.93
2019-02-05T20:46:03.849Z,3.01
2019-02-05T20:47:03.847Z,2.97
2019-02-05T20:48:03.830Z,3.07
2019-02-05T20:49:03.830Z,2.87
2019-02-05T20:50:03.826Z,2.95
2019-02-05T20:51:03.853Z,2.97
2019-02-05T20:52:03.858Z,2.93
2019-02-05T20:53:13.666Z,2.95
2019-02-05T20:54:04.020Z,2.97
2019-02-05T20:55:03.827Z,2.93
2019-02-05T20:56:03.838Z,3.00
2019-02-05T20:57:03.849Z,3.10
2019-02-05T20:58:02.018Z,3.07
2019-02-05T20:59:01.987Z,3.05
2019-02-05T21:00:09.517Z,3.05
2019-02-05T21:01:03.904Z,3.05
2019-02-05T21:02:03.843Z,3.01
2019-02-05T21:03:03.877Z,3.07
2019-02-05T21:04:03.848Z,3.00
2019-02-05T21:05:03.861Z,3.07
2019-02-05T21:06:03.913Z,3.05
2019-02-05T21:07:03.869Z,3.04
2019-02-05T21:08:03.939Z,3.01
2019-02-05T21:09:03.854Z,2.97
2019-02-05T21:10:03.354Z,3.10
2019-02-05T21:11:03.460Z,3.01
2019-02-05T21:12:03.354Z,2.93
2019-02-05T21:13:03.376Z,3.05
2019-02-05T21:14:05.188Z,3.08
2019-02-05T21:15:03.455Z,2.97
2019-02-05T21:16:03.343Z,3.04
2019-02-05T21:17:03.351Z,3.05
2019-02-05T21:18:03.401Z,3.05
2019-02-05T21:19:02.761Z,3.05
2019-02-05T21:20:03.365Z,3.14
2019-02-05T21:21:06.046Z,3.05
2019-02-05T21:22:03.357Z,3.08
2019-02-05T21:32:10.159Z,3.05
2019-02-05T21:33:02.731Z,2.97
2019-02-05T21:34:14.857Z,2.98
2019-02-05T21:35:03.609Z,3.19
2019-02-05T21:36:03.681Z,3.03
2019-02-05T21:37:02.542Z,3.05
2019-02-05T21:38:03.688Z,2.97
2019-02-05T21:39:02.675Z,3.05
2019-02-05T21:40:02.928Z,3.10
2019-02-05T21:41:02.589Z,3.11
2019-02-05T21:42:02.511Z,3.10
2019-02-05T21:43:02.691Z,3.10
2019-02-05T21:44:02.476Z,3.04
2019-02-05T21:45:02.468Z,3.16
2019-02-05T21:46:02.456Z,3.05
2019-02-05T21:47:03.569Z,3.16
2019-02-05T21:48:02.492Z,3.08
2019-02-05T21:49:02.539Z,3.11
2019-02-05T21:50:02.447Z,3.11
2019-02-05T21:51:02.440Z,3.01
2019-02-05T21:53:02.458Z,2.98
2019-02-05T21:54:11.413Z,3.00
2019-02-05T21:55:02.395Z,3.05
2019-02-05T21:56:02.547Z,2.97
2019-02-05T21:57:02.343Z,3.07
2019-02-05T21:58:02.473Z,3.07
2019-02-05T21:59:02.310Z,3.04
2019-02-05T22:00:02.454Z,3.08
2019-02-05T22:01:02.324Z,3.11
2019-02-05T22:02:02.279Z,3.03
2019-02-05T22:03:02.343Z,3.01
2019-02-05T22:04:02.368Z,3.05
2019-02-05T22:05:02.251Z,3.04
2019-02-05T22:06:02.421Z,3.03
2019-02-05T22:07:02.277Z,3.07
2019-02-05T22:08:02.296Z,3.08
2019-02-05T22:09:03.303Z,3.04
2019-02-05T22:10:02.208Z,3.00
2019-02-05T22:11:09.265Z,3.00
2019-02-05T22:12:02.222Z,3.13
2019-02-05T22:13:03.395Z,3.10
2019-02-05T22:14:02.169Z,3.10
2019-02-05T22:15:02.266Z,3.04
2019-02-05T22:16:02.138Z,3.00
2019-02-05T22:17:02.233Z,3.01
2019-02-05T22:18:02.133Z,3.10
2019-02-05T22:19:02.148Z,3.03
2019-02-05T22:20:02.090Z,3.05
2019-02-05T22:21:02.257Z,3.05
2019-02-05T22:22:02.080Z,3.03
2019-02-05T22:23:02.188Z,3.04
2019-02-05T22:24:02.105Z,3.01
2019-02-05T22:25:02.049Z,3.04
2019-02-05T22:26:02.031Z,3.04
2019-02-05T22:27:02.230Z,3.08
2019-02-05T22:28:02.019Z,2.97
2019-02-05T22:29:02.170Z,2.97
2019-02-05T22:30:02.042Z,3.11
2019-02-05T22:31:01.981Z,3.05
2019-02-05T22:32:01.974Z,3.03
2019-02-05T22:33:02.136Z,3.10
2019-02-05T22:34:01.998Z,3.04
2019-02-05T22:35:02.044Z,3.05
2019-02-05T22:36:01.979Z,3.05
2019-02-05T22:37:03.605Z,3.07
2019-02-05T22:38:02.084Z,3.07
2019-02-05T22:39:01.950Z,3.08
2019-02-05T22:40:01.910Z,3.01
2019-02-05T22:41:01.880Z,3.05
2019-02-05T22:42:02.019Z,3.14
2019-02-05T22:43:01.882Z,3.07
2019-02-05T22:44:02.016Z,2.98
2019-02-05T22:45:01.843Z,3.07
2019-02-05T22:46:02.940Z,2.95
2019-02-05T22:47:01.816Z,3.08
2019-02-05T22:48:02.266Z,2.93
2019-02-05T22:49:01.841Z,3.08
2019-02-05T22:50:09.721Z,3.08
2019-02-05T22:51:01.792Z,3.03
2019-02-05T22:52:01.894Z,3.08
2019-02-05T22:53:01.753Z,3.00
2019-02-05T22:54:01.823Z,3.05
2019-02-05T22:55:01.735Z,3.08
2019-02-05T22:56:02.807Z,3.04
2019-02-05T22:57:01.717Z,2.97
2019-02-05T22:58:01.793Z,3.07
2019-02-05T22:59:01.747Z,2.97
2019-02-05T23:00:01.703Z,3.07
2019-02-05T23:01:01.691Z,3.03
2019-02-05T23:02:01.760Z,3.04
2019-02-05T23:03:01.690Z,3.04
2019-02-05T23:04:01.814Z,2.92
2019-02-05T23:05:01.639Z,3.05
2019-02-05T23:06:01.635Z,3.00
2019-02-05T23:07:02.772Z,2.90
2019-02-05T23:08:01.609Z,2.95
2019-02-05T23:09:01.717Z,3.08
2019-02-05T23:10:01.592Z,2.95
2019-02-05T23:11:03.522Z,3.07
2019-02-05T23:12:01.598Z,3.05
2019-02-05T23:13:01.712Z,2.95
2019-02-05T23:14:01.581Z,3.07
2019-02-05T23:15:02.627Z,2.93
2019-02-05T23:16:01.580Z,2.92
2019-02-05T23:17:39.320Z,3.07
2019-02-05T23:18:01.525Z,3.08
2019-02-05T23:19:01.540Z,3.03
2019-02-05T23:20:03.599Z,3.00
2019-02-05T23:21:01.469Z,2.98
2019-02-05T23:22:03.632Z,3.05
2019-02-05T23:23:01.462Z,3.04
2019-02-05T23:24:15.788Z,3.03
2019-02-05T23:25:01.424Z,3.01
2019-02-05T23:27:01.840Z,2.90
2019-02-05T23:28:38.150Z,2.87
2019-02-05T23:29:01.398Z,2.95
2019-02-05T23:30:01.375Z,2.89
2019-02-05T23:31:17.434Z,2.89
2019-02-05T23:32:01.429Z,2.93
2019-02-05T23:33:30.275Z,2.86
2019-02-05T23:34:01.364Z,2.93
2019-02-05T23:35:02.708Z,2.82
2019-02-05T23:36:01.457Z,2.85
2019-02-05T23:37:01.338Z,2.82
2019-02-05T23:38:03.434Z,2.80
2019-02-05T23:49:40.218Z,2.61
2019-02-05T23:50:41.975Z,2.62
2019-02-05T23:51:41.977Z,2.57
2019-02-05T23:52:41.976Z,2.57
2019-02-05T23:53:41.970Z,2.53
2019-02-05T23:54:41.987Z,2.47
2019-02-05T23:55:40.128Z,2.54
2019-02-05T23:56:41.956Z,2.57
2019-02-05T23:57:41.973Z,2.46
2019-02-05T23:58:41.970Z,2.50
2019-02-05T23:59:41.959Z,2.46
